Time;durP1;ratioP1;P1;durP2;ratioP2;P2;SDS_P1;SDS_P2;PMS_P1;PMS_P2;Temp;Humidity;BMP_temperature;BMP_pressure;BME280_temperature;BME280_humidity;BME280_pressure;Samples;Min_cycle;Max_cycle;Signal;HPM_P1;HPM_P2
2023/03/23 00:01:10;;;;;;;6.00;3.28;;;;;;;11.45;96.67;100167.34;5055563;28;20415;-88
2023/03/23 00:03:36;;;;;;;5.18;3.42;;;;;;;11.47;96.30;100170.84;5073494;28;20025;-88
2023/03/23 00:06:04;;;;;;;6.47;3.50;;;;;;;11.58;96.22;100214.03;5055687;28;20032;-88
2023/03/23 00:08:31;;;;;;;6.82;3.50;;;;;;;11.54;96.59;100201.72;5039394;28;20036;-88
2023/03/23 00:10:56;;;;;;;5.15;3.33;;;;;;;11.33;95.99;100152.41;5072608;28;20376;-88
2023/03/23 00:13:25;;;;;;;6.32;3.58;;;;;;;11.47;95.46;100152.34;5073610;28;20052;-88
2023/03/23 00:15:56;;;;;;;7.97;3.47;;;;;;;11.54;95.64;100162.91;5073295;28;20042;-88
2023/03/23 00:18:22;;;;;;;5.35;3.47;;;;;;;11.70;95.26;100197.25;5039465;28;20039;-88
2023/03/23 00:20:53;;;;;;;6.72;3.40;;;;;;;11.66;95.74;100212.25;5073069;28;20025;-88
2023/03/23 00:23:20;;;;;;;7.28;3.50;;;;;;;11.69;95.62;100208.69;5073371;28;20081;-88
2023/03/23 00:25:56;;;;;;;6.47;3.65;;;;;;;11.58;95.73;100174.34;5073319;28;20033;-88
2023/03/23 00:28:24;;;;;;;6.53;3.63;;;;;;;11.49;95.85;100150.59;5055296;28;20028;-87
2023/03/23 00:31:03;;;;;;;6.20;3.67;;;;;;;11.62;96.12;100180.53;5073184;28;20048;-88
2023/03/23 00:33:33;;;;;;;6.45;3.50;;;;;;;11.50;95.50;100174.38;5038755;28;20020;-88
2023/03/23 00:35:59;;;;;;;7.28;3.60;;;;;;;11.60;95.79;100191.09;5073261;28;20023;-88
2023/03/23 00:38:24;;;;;;;7.07;3.70;;;;;;;11.68;95.67;100188.41;5073012;28;20037;-88
2023/03/23 00:40:50;;;;;;;6.10;3.65;;;;;;;11.68;95.74;100202.53;5073205;28;20020;-88
2023/03/23 00:43:18;;;;;;;6.20;3.85;;;;;;;11.73;95.47;100199.84;5073511;28;20031;-88
2023/03/23 00:45:49;;;;;;;5.50;3.67;;;;;;;11.70;95.68;100191.97;5073175;28;20032;-88
2023/03/23 00:48:14;;;;;;;9.75;3.72;;;;;;;11.67;95.73;100189.31;5039349;28;20028;-88
2023/03/23 00:50:40;;;;;;;6.60;3.75;;;;;;;11.70;95.47;100194.59;5038367;28;20032;-88
2023/03/23 00:53:06;;;;;;;5.50;3.58;;;;;;;11.64;96.09;100174.31;5073062;28;20028;-88
2023/03/23 00:55:31;;;;;;;6.57;3.75;;;;;;;11.62;96.18;100164.66;5072993;28;20035;-88
2023/03/23 00:57:56;;;;;;;4.65;3.40;;;;;;;11.69;96.42;100177.84;5055255;28;20449;-88
2023/03/23 01:00:23;;;;;;;6.38;3.80;;;;;;;11.66;96.62;100176.97;5038855;28;20043;-89
2023/03/23 01:02:51;;;;;;;5.88;3.88;;;;;;;11.73;97.45;100183.97;5072920;28;20071;-89
2023/03/23 01:05:17;;;;;;;9.48;3.90;;;;;;;11.62;97.80;100165.53;5073061;28;20123;-89
2023/03/23 01:07:44;;;;;;;6.35;3.72;;;;;;;11.69;97.60;100164.63;5072662;28;20034;-90
2023/03/23 01:10:12;;;;;;;6.85;3.92;;;;;;;11.58;97.94;100147.91;5072859;28;20028;-89
2023/03/23 01:12:38;;;;;;;5.65;3.65;;;;;;;11.58;97.91;100147.03;5073021;28;20444;-89
2023/03/23 01:15:04;;;;;;;6.65;4.15;;;;;;;11.66;97.86;100161.09;5038494;28;20029;-89
2023/03/23 01:17:29;;;;;;;6.28;3.90;;;;;;;11.65;97.73;100146.09;5055073;28;20031;-89
2023/03/23 01:19:56;;;;;;;7.50;3.95;;;;;;;11.69;97.54;100121.34;5021545;28;20414;-89
2023/03/23 01:22:21;;;;;;;5.18;3.53;;;;;;;11.64;97.22;100115.22;5058424;28;20025;-89
2023/03/23 01:24:47;;;;;;;8.98;3.58;;;;;;;11.62;97.11;100117.88;5076837;28;20467;-90
2023/03/23 01:27:12;;;;;;;6.38;4.00;;;;;;;11.71;97.07;100130.19;5076523;28;20021;-90
2023/03/23 01:29:37;;;;;;;8.43;3.95;;;;;;;11.68;97.46;100131.06;5058988;28;20029;-90
2023/03/23 01:32:03;;;;;;;6.22;3.40;;;;;;;11.60;96.80;100106.41;5076108;28;20363;-90
2023/03/23 01:34:28;;;;;;;6.40;3.75;;;;;;;11.77;96.59;100132.78;5041610;28;20024;-89
2023/03/23 01:36:54;;;;;;;6.70;3.60;;;;;;;11.75;96.29;100103.69;5058524;28;20029;-91
2023/03/23 01:39:20;;;;;;;6.05;3.90;;;;;;;11.85;95.45;100116.91;5058478;28;20457;-90
2023/03/23 01:41:45;;;;;;;4.60;3.20;;;;;;;11.72;95.93;100106.34;5058299;28;20033;-90
2023/03/23 01:44:17;;;;;;;6.32;3.92;;;;;;;11.87;95.80;100126.59;5058046;28;20456;-91
2023/03/23 01:46:43;;;;;;;8.98;3.38;;;;;;;11.77;95.61;100107.19;5075900;28;20052;-90
2023/03/23 01:49:16;;;;;;;8.35;3.85;;;;;;;11.88;95.41;100149.53;5075596;28;20115;-91
2023/03/23 01:52:05;;;;;;;5.97;3.85;;;;;;;11.88;95.45;100136.31;5076125;28;20071;-90
2023/03/23 01:54:31;;;;;;;5.25;3.67;;;;;;;11.92;95.39;100134.53;5057900;28;20024;-90
2023/03/23 01:57:04;;;;;;;5.55;3.58;;;;;;;11.92;95.09;100124.81;5058130;28;20020;-90
2023/03/23 01:59:31;;;;;;;6.05;3.72;;;;;;;11.94;95.16;100116.84;5075853;28;20025;-89
2023/03/23 02:01:56;;;;;;;5.80;3.85;;;;;;;11.84;95.10;100097.50;5041592;28;20107;-89
2023/03/23 02:04:24;;;;;;;5.30;3.67;;;;;;;11.98;94.61;100115.94;5057815;28;20031;-89
2023/03/23 02:06:51;;;;;;;6.55;3.53;;;;;;;11.95;94.69;100098.31;5057840;28;20119;-89
2023/03/23 02:09:17;;;;;;;7.03;3.78;;;;;;;11.87;94.31;100092.19;5075724;28;20040;-89
2023/03/23 02:11:44;;;;;;;7.30;3.83;;;;;;;12.03;93.68;100085.00;5075598;28;20381;-89
2023/03/23 02:14:11;;;;;;;5.32;3.83;;;;;;;12.05;93.95;100120.31;5041178;28;20025;-88
2023/03/23 02:17:07;;;;;;;6.15;4.07;;;;;;;12.02;94.47;100086.78;5075454;28;20029;-88
2023/03/23 02:19:41;;;;;;;7.18;3.78;;;;;;;12.06;93.73;100092.94;5075038;28;20040;-88
2023/03/23 02:22:07;;;;;;;5.32;3.60;;;;;;;12.07;93.41;100096.44;5057323;28;20032;-88
2023/03/23 02:24:38;;;;;;;11.15;4.00;;;;;;;12.08;93.40;100088.50;5057514;28;20032;-88
2023/03/23 02:27:10;;;;;;;6.03;3.90;;;;;;;11.96;93.59;100064.78;5057527;28;20082;-88
2023/03/23 02:29:41;;;;;;;5.57;3.78;;;;;;;12.07;93.63;100096.44;5075524;28;20052;-88
2023/03/23 02:32:20;;;;;;;5.10;3.53;;;;;;;12.05;93.06;100088.53;5075045;28;20063;-87
2023/03/23 02:34:50;;;;;;;6.05;3.80;;;;;;;12.05;93.22;100096.47;5057083;28;20070;-88
2023/03/23 02:37:56;;;;;;;5.82;3.80;;;;;;;12.01;93.26;100079.72;5075374;28;20039;-88
2023/03/23 02:40:33;;;;;;;6.68;4.00;;;;;;;12.02;93.03;100078.81;4974253;28;20027;-88
2023/03/23 02:43:00;;;;;;;6.45;3.88;;;;;;;12.03;92.86;100071.75;5064634;28;20419;-88
2023/03/23 02:45:29;;;;;;;7.80;4.03;;;;;;;12.03;92.93;100058.50;5057416;28;20033;-88
2023/03/23 02:47:56;;;;;;;6.55;3.70;;;;;;;12.03;92.86;100071.75;5074526;28;20536;-88
2023/03/23 02:50:25;;;;;;;5.90;3.78;;;;;;;11.92;92.22;100049.81;5074795;28;20043;-88
2023/03/23 02:52:53;;;;;;;5.78;3.65;;;;;;;12.01;92.32;100077.06;5056890;28;20060;-88
2023/03/23 02:55:20;;;;;;;6.35;3.75;;;;;;;12.07;92.17;100078.78;5076235;28;20020;-88
2023/03/23 02:57:46;;;;;;;5.93;3.47;;;;;;;12.08;92.70;100085.88;5075576;28;20028;-88
2023/03/23 03:00:15;;;;;;;5.93;3.85;;;;;;;12.03;93.11;100077.97;5057657;28;20074;-88
2023/03/23 03:02:53;;;;;;;5.03;3.38;;;;;;;12.05;92.79;100067.34;5075061;28;20035;-89
2023/03/23 03:05:18;;;;;;;5.57;3.60;;;;;;;12.10;92.53;100092.00;5082687;28;20020;-88
2023/03/23 03:08:15;;;;;;;6.72;3.53;;;;;;;12.11;92.27;100074.34;5064954;28;20444;-88
2023/03/23 03:10:55;;;;;;;4.80;3.25;;;;;;;12.03;92.20;100075.31;5074684;28;20447;-89
2023/03/23 03:13:38;;;;;;;5.10;3.45;;;;;;;12.15;92.07;100086.69;5073905;28;20075;-89
2023/03/23 03:16:12;;;;;;;7.65;3.35;;;;;;;12.13;92.17;100084.06;5056625;28;20127;-89
2023/03/23 03:18:45;;;;;;;5.47;3.53;;;;;;;12.10;92.65;100085.84;5074359;28;20032;-88
2023/03/23 03:21:14;;;;;;;6.25;3.67;;;;;;;12.06;92.99;100077.03;5074116;28;20456;-88
2023/03/23 03:23:42;;;;;;;6.60;3.80;;;;;;;12.00;92.58;100069.16;5074546;28;20032;-88
2023/03/23 03:26:11;;;;;;;5.22;3.70;;;;;;;12.09;92.21;100092.03;5074393;28;20531;-88
2023/03/23 03:28:37;;;;;;;5.72;3.67;;;;;;;11.96;92.39;100070.94;5074104;28;20024;-89
2023/03/23 03:31:06;;;;;;;5.05;3.50;;;;;;;12.06;92.31;100084.09;5039677;28;20094;-88
2023/03/23 03:33:33;;;;;;;5.20;3.38;;;;;;;12.09;91.45;100087.63;5073734;28;20508;-88
2023/03/23 03:36:08;;;;;;;5.90;3.60;;;;;;;12.12;91.74;100078.75;5056222;28;20031;-89
2023/03/23 03:38:42;;;;;;;8.48;3.67;;;;;;;12.05;91.81;100080.59;5074167;28;20032;-88
2023/03/23 03:41:08;;;;;;;7.70;3.22;;;;;;;12.03;91.78;100069.09;5074082;28;20029;-89
2023/03/23 03:43:34;;;;;;;5.03;3.35;;;;;;;12.08;91.19;100085.88;5056365;28;20086;-87
2023/03/23 03:46:00;;;;;;;7.57;3.70;;;;;;;12.06;91.42;100084.97;5055495;28;20573;-88
2023/03/23 03:48:25;;;;;;;8.10;2.88;;;;;;;12.11;90.74;100085.81;5073761;28;20039;-89
2023/03/23 03:50:51;;;;;;;7.78;3.63;;;;;;;12.03;90.98;100077.06;5055808;28;20482;-89
2023/03/23 03:53:17;;;;;;;7.45;3.20;;;;;;;11.91;90.40;100056.88;5055988;28;20039;-88
2023/03/23 03:55:48;;;;;;;6.82;3.38;;;;;;;12.00;89.93;100063.88;5073676;28;20058;-88
2023/03/23 03:58:14;;;;;;;8.20;3.35;;;;;;;12.05;89.84;100066.47;5073803;28;20036;-88
2023/03/23 04:00:41;;;;;;;5.15;3.13;;;;;;;12.09;89.84;100092.03;5055937;28;20411;-88
2023/03/23 04:03:07;;;;;;;7.18;3.38;;;;;;;12.00;89.82;100077.09;5073601;28;20028;-88
2023/03/23 04:05:32;;;;;;;7.95;3.38;;;;;;;11.99;89.79;100084.16;5055840;28;20119;-88
2023/03/23 04:08:01;;;;;;;5.13;2.95;;;;;;;12.08;89.32;100108.81;5073591;28;20052;-88
2023/03/23 04:10:28;;;;;;;9.60;3.30;;;;;;;11.92;89.04;100082.44;5073553;28;20043;-88
2023/03/23 04:12:54;;;;;;;6.00;2.80;;;;;;;12.07;88.73;100097.31;5073089;28;20473;-87
2023/03/23 04:15:20;;;;;;;8.85;3.33;;;;;;;12.03;88.33;100082.34;5055494;28;20115;-88
2023/03/23 04:17:45;;;;;;;8.15;2.75;;;;;;;11.78;88.26;100056.03;5055563;28;20456;-88
2023/03/23 04:20:14;;;;;;;6.43;2.97;;;;;;;12.05;88.61;100090.31;5055305;28;20059;-89
2023/03/23 04:22:43;;;;;;;7.43;2.85;;;;;;;12.00;87.97;100103.56;5073500;28;20047;-88
2023/03/23 04:25:10;;;;;;;7.45;2.78;;;;;;;12.04;87.48;100102.66;5073452;28;20028;-88
2023/03/23 04:27:36;;;;;;;9.20;2.70;;;;;;;12.10;87.60;100104.38;5073402;28;20025;-89
2023/03/23 04:30:02;;;;;;;6.20;2.92;;;;;;;11.85;86.97;100063.97;5055343;28;20484;-89
2023/03/23 04:32:31;;;;;;;6.75;2.60;;;;;;;12.09;87.03;100111.44;5073333;28;20035;-89
2023/03/23 04:34:59;;;;;;;8.68;2.80;;;;;;;12.09;86.89;100115.88;5073127;28;20033;-88
2023/03/23 04:37:28;;;;;;;7.63;2.50;;;;;;;12.02;86.78;100105.31;5055809;28;20456;-88
2023/03/23 04:40:00;;;;;;;6.97;2.47;;;;;;;12.09;86.16;100122.03;5073224;28;20115;-88
2023/03/23 04:42:30;;;;;;;6.80;2.88;;;;;;;12.12;86.38;100137.91;5073299;28;20086;-89
2023/03/23 04:44:57;;;;;;;10.63;2.53;;;;;;;12.10;86.29;100125.56;5073112;28;20032;-88
2023/03/23 04:47:23;;;;;;;5.95;2.40;;;;;;;12.01;86.18;100115.91;5073202;28;20029;-88
2023/03/23 04:49:50;;;;;;;9.15;2.63;;;;;;;11.98;86.31;100110.63;5055011;28;20024;-89
2023/03/23 04:52:16;;;;;;;7.95;2.50;;;;;;;11.91;86.24;100101.00;5055109;28;20037;-88
2023/03/23 04:54:42;;;;;;;7.60;2.42;;;;;;;12.04;86.42;100126.50;5055385;28;20368;-88
2023/03/23 04:57:08;;;;;;;7.80;2.40;;;;;;;11.93;86.46;100108.03;5075993;28;20516;-89
2023/03/23 04:59:34;;;;;;;7.47;2.58;;;;;;;11.99;86.24;100115.03;5077010;28;20120;-88
2023/03/23 05:01:59;;;;;;;11.40;2.42;;;;;;;12.11;85.88;100130.84;5042583;28;20024;-89
2023/03/23 05:04:25;;;;;;;6.53;2.45;;;;;;;12.01;85.58;100110.63;5058803;28;20024;-88
2023/03/23 05:06:51;;;;;;;5.30;2.40;;;;;;;12.03;85.37;100111.47;5042329;28;20029;-88
2023/03/23 05:09:16;;;;;;;7.18;2.55;;;;;;;12.09;85.84;100123.81;5059106;28;20460;-88
2023/03/23 05:11:43;;;;;;;5.70;2.20;;;;;;;12.08;86.06;100132.66;5058900;28;20062;-87
2023/03/23 05:14:08;;;;;;;9.25;2.30;;;;;;;12.02;85.95;100118.53;5058815;28;20040;-88
2023/03/23 05:16:37;;;;;;;8.98;2.60;;;;;;;12.07;86.05;100133.53;5058428;28;20040;-88
2023/03/23 05:19:04;;;;;;;12.43;2.78;;;;;;;12.04;86.19;100134.44;5076317;28;20104;-88
2023/03/23 05:21:30;;;;;;;9.98;2.78;;;;;;;12.07;85.80;100120.28;5042302;28;20036;-87
2023/03/23 05:23:55;;;;;;;6.43;2.17;;;;;;;11.96;85.99;100115.94;5058375;28;20094;-87
2023/03/23 05:26:23;;;;;;;6.70;2.30;;;;;;;11.94;85.49;100112.41;5058617;28;20040;-87
2023/03/23 05:28:52;;;;;;;8.50;2.42;;;;;;;11.93;85.19;100093.91;5056415;28;20029;-89
2023/03/23 05:31:18;;;;;;;7.35;2.45;;;;;;;11.95;85.09;100116.84;5039273;28;20044;-89
2023/03/23 05:33:44;;;;;;;7.97;2.55;;;;;;;12.04;85.54;100145.03;5056274;28;20107;-88
2023/03/23 05:36:13;;;;;;;11.55;2.83;;;;;;;12.03;85.33;100149.47;5056504;28;20120;-88
2023/03/23 05:38:41;;;;;;;9.00;2.40;;;;;;;11.98;85.52;100134.47;5056603;28;20641;-88
2023/03/23 05:41:07;;;;;;;7.82;2.60;;;;;;;12.00;85.77;100130.06;5006304;28;20033;-88
2023/03/23 05:43:33;;;;;;;5.63;2.35;;;;;;;11.98;86.06;100130.03;5056142;28;20362;-88
2023/03/23 05:45:58;;;;;;;8.50;2.40;;;;;;;11.97;86.38;100138.00;5038080;28;20453;-89
2023/03/23 05:48:24;;;;;;;6.75;2.55;;;;;;;11.91;86.93;100127.47;5055463;28;20029;-87
2023/03/23 05:50:50;;;;;;;7.28;2.50;;;;;;;11.84;87.43;100123.09;5054759;28;20025;-88
2023/03/23 05:53:16;;;;;;;7.32;2.45;;;;;;;11.80;87.87;100127.50;5037806;28;20115;-89
2023/03/23 05:55:41;;;;;;;10.60;3.00;;;;;;;11.70;88.69;100126.66;5037303;28;20029;-89
2023/03/23 05:58:06;;;;;;;6.90;2.42;;;;;;;11.64;89.02;100116.09;5037451;28;20111;-88
2023/03/23 06:00:32;;;;;;;15.00;2.83;;;;;;;11.74;89.11;100143.41;5055443;28;20110;-89
2023/03/23 06:02:58;;;;;;;7.40;2.67;;;;;;;11.63;89.33;100122.28;5037454;28;20021;-89
2023/03/23 06:05:25;;;;;;;8.75;2.65;;;;;;;11.70;89.43;100136.38;5020404;28;20033;-89
2023/03/23 06:07:52;;;;;;;10.32;2.67;;;;;;;11.67;89.73;100137.25;5054103;28;20519;-90
2023/03/23 06:10:17;;;;;;;7.30;2.38;;;;;;;11.36;89.58;100080.09;5058859;28;20060;-88
2023/03/23 06:12:43;;;;;;;10.00;3.00;;;;;;;11.55;89.86;100113.50;5054825;28;20461;-88
2023/03/23 06:15:09;;;;;;;8.27;2.60;;;;;;;11.62;89.72;100130.25;5037137;28;20029;-87
2023/03/23 06:17:36;;;;;;;9.40;2.55;;;;;;;11.69;89.01;100140.78;5036976;28;20029;-87
2023/03/23 06:20:04;;;;;;;9.32;2.90;;;;;;;11.70;89.06;100155.78;5020800;28;20032;-88
2023/03/23 06:22:30;;;;;;;7.90;2.67;;;;;;;11.67;88.75;100166.38;5036890;28;20114;-88
2023/03/23 06:24:56;;;;;;;7.70;2.45;;;;;;;11.62;88.51;100138.19;5055217;28;20453;-89
2023/03/23 06:27:22;;;;;;;7.00;2.65;;;;;;;11.73;88.53;100165.44;5054656;28;20044;-88
2023/03/23 06:29:48;;;;;;;10.73;2.80;;;;;;;11.79;88.06;100174.25;5007318;28;20088;-87
2023/03/23 06:32:14;;;;;;;5.80;2.53;;;;;;;11.82;88.16;100185.69;5055837;28;20487;-88
2023/03/23 06:34:43;;;;;;;8.10;2.75;;;;;;;11.76;87.85;100176.03;5036633;28;20029;-87
2023/03/23 06:37:09;;;;;;;9.15;2.55;;;;;;;11.77;87.31;100185.72;5054662;28;20025;-88
2023/03/23 06:39:35;;;;;;;9.05;2.42;;;;;;;11.86;87.60;100196.34;5054532;28;20040;-87
2023/03/23 06:42:01;;;;;;;9.90;2.70;;;;;;;11.87;87.21;100186.63;5054683;28;20028;-88
2023/03/23 06:44:26;;;;;;;9.73;2.80;;;;;;;11.89;86.76;100195.41;5036890;28;20047;-88
2023/03/23 06:46:52;;;;;;;13.48;2.85;;;;;;;11.83;86.56;100198.09;5020420;28;20136;-88
2023/03/23 06:49:17;;;;;;;10.25;2.70;;;;;;;11.97;86.84;100220.09;5036474;28;20365;-88
2023/03/23 06:51:42;;;;;;;10.82;2.80;;;;;;;11.92;87.20;100201.59;5054427;28;20086;-88
2023/03/23 06:54:08;;;;;;;11.20;2.72;;;;;;;11.91;87.03;100207.78;5055188;28;20024;-88
2023/03/23 06:56:34;;;;;;;7.97;2.58;;;;;;;11.85;87.71;100202.50;5056430;28;20040;-89
2023/03/23 06:58:59;;;;;;;8.05;2.55;;;;;;;11.78;88.66;100211.34;5036575;28;20476;-89
2023/03/23 07:01:24;;;;;;;7.35;2.60;;;;;;;11.82;87.41;100226.31;5019420;28;20029;-89
2023/03/23 07:03:50;;;;;;;7.53;2.72;;;;;;;11.82;88.17;100221.03;5036386;28;20021;-89
2023/03/23 07:06:16;;;;;;;10.18;2.63;;;;;;;11.72;87.85;100198.97;5036331;28;20444;-90
2023/03/23 07:08:41;;;;;;;5.88;2.10;;;;;;;11.80;88.38;100225.44;5053960;28;20078;-89
2023/03/23 07:11:07;;;;;;;8.52;2.70;;;;;;;11.69;88.58;100206.97;5053953;28;20025;-89
2023/03/23 07:13:33;;;;;;;9.35;2.67;;;;;;;11.77;89.16;100226.31;5056616;28;20049;-89
2023/03/23 07:15:59;;;;;;;10.80;2.70;;;;;;;11.64;90.16;100219.31;5019472;28;20029;-90
2023/03/23 07:18:25;;;;;;;6.85;2.70;;;;;;;11.61;90.81;100227.28;5053808;28;20036;-91
2023/03/23 07:20:52;;;;;;;7.63;2.60;;;;;;;11.43;92.13;100228.19;5053716;28;20056;-90
2023/03/23 07:23:19;;;;;;;8.98;2.80;;;;;;;11.54;93.43;100267.84;5053623;28;20029;-92
2023/03/23 07:25:46;;;;;;;8.00;2.72;;;;;;;11.43;94.87;100256.41;5054808;28;20037;-90
2023/03/23 07:28:11;;;;;;;10.45;2.70;;;;;;;11.35;95.77;100266.13;5055235;28;20027;-87
2023/03/23 07:30:38;;;;;;;9.32;2.50;;;;;;;11.24;95.43;100252.94;5035967;28;20123;-89
2023/03/23 07:33:08;;;;;;;10.52;2.70;;;;;;;11.17;97.86;100261.75;5038861;28;20475;-90
2023/03/23 07:35:35;;;;;;;9.95;2.42;;;;;;;11.12;99.00;100271.44;5037001;28;20029;-89
2023/03/23 07:38:01;;;;;;;7.28;2.70;;;;;;;11.09;100.00;100289.94;5053975;28;20029;-88
2023/03/23 07:40:28;;;;;;;7.20;2.53;;;;;;;10.89;100.00;100267.06;5054056;28;20083;-89
2023/03/23 07:42:56;;;;;;;7.90;2.30;;;;;;;10.95;99.40;100298.78;5036303;28;20025;-90
2023/03/23 07:45:22;;;;;;;2.97;1.55;;;;;;;10.81;94.01;100279.38;5036343;28;20036;-89
2023/03/23 07:47:47;;;;;;;4.90;1.83;;;;;;;10.60;93.12;100253.81;5055961;28;20029;-90
2023/03/23 07:50:13;;;;;;;3.10;1.65;;;;;;;10.59;92.24;100252.06;5037040;28;20412;-90
2023/03/23 07:52:41;;;;;;;4.75;1.60;;;;;;;10.48;92.46;100252.03;5038266;28;20025;-94
2023/03/23 07:55:08;;;;;;;4.43;1.70;;;;;;;10.47;92.89;100267.91;5056302;28;20021;-95
2023/03/23 07:57:34;;;;;;;4.03;1.70;;;;;;;10.47;93.46;100273.19;5040130;28;20029;-93
2023/03/23 08:00:00;;;;;;;6.03;1.80;;;;;;;10.44;93.43;100265.25;5056031;28;20023;-96
2023/03/23 08:02:26;;;;;;;4.85;1.70;;;;;;;10.46;94.44;100277.59;5056253;28;20060;-96
2023/03/23 08:04:53;;;;;;;5.70;2.00;;;;;;;10.35;94.72;100270.50;5039079;28;20025;-95
2023/03/23 08:07:19;;;;;;;4.65;2.00;;;;;;;10.45;96.30;100282.88;5059387;28;20033;-93
2023/03/23 08:09:47;;;;;;;4.07;1.88;;;;;;;10.47;96.78;100281.97;5057265;28;20025;-93
2023/03/23 08:12:13;;;;;;;3.95;1.90;;;;;;;10.44;97.24;100281.97;5038531;28;20128;-92
2023/03/23 08:14:41;;;;;;;4.65;1.83;;;;;;;10.34;97.59;100281.97;5037111;28;20113;-92
2023/03/23 08:17:08;;;;;;;3.20;1.77;;;;;;;10.36;97.37;100302.19;5036381;28;20029;-92
2023/03/23 08:19:36;;;;;;;4.10;1.90;;;;;;;10.45;97.10;100302.25;5018408;28;20377;-91
2023/03/23 08:22:03;;;;;;;8.40;2.10;;;;;;;10.42;95.86;100299.59;5019524;28;20362;-90
2023/03/23 08:24:30;;;;;;;5.80;1.95;;;;;;;10.51;95.07;100310.16;5055801;28;20083;-87
2023/03/23 08:26:55;;;;;;;5.38;2.00;;;;;;;10.52;95.65;100309.28;5055231;28;20087;-88
2023/03/23 08:29:20;;;;;;;3.67;1.80;;;;;;;10.52;95.59;100313.69;5053541;28;20412;-88
2023/03/23 08:31:46;;;;;;;6.38;1.98;;;;;;;10.44;94.19;100310.13;5034408;28;20031;-88
2023/03/23 08:34:12;;;;;;;3.33;1.70;;;;;;;10.51;94.24;100315.44;5018435;28;20040;-86
2023/03/23 08:36:37;;;;;;;4.70;1.60;;;;;;;10.48;95.26;100317.19;5034519;28;20036;-88
2023/03/23 08:39:05;;;;;;;4.20;1.58;;;;;;;10.36;94.76;100294.25;5052693;28;20032;-86
2023/03/23 08:41:31;;;;;;;3.22;1.60;;;;;;;10.46;95.43;100304.00;5052389;28;20480;-89
2023/03/23 08:43:56;;;;;;;5.35;1.73;;;;;;;10.42;95.31;100315.44;5053323;28;20480;-88
2023/03/23 08:46:22;;;;;;;4.40;1.65;;;;;;;10.40;95.36;100300.44;5052484;28;20033;-88
2023/03/23 08:48:47;;;;;;;4.55;1.70;;;;;;;10.45;94.04;100307.53;5018018;28;20028;-87
2023/03/23 08:51:13;;;;;;;4.18;1.80;;;;;;;10.46;94.23;100309.28;5052489;28;20024;-87
2023/03/23 08:53:39;;;;;;;3.08;1.42;;;;;;;10.49;94.90;100326.88;5034725;28;20037;-87
2023/03/23 08:56:10;;;;;;;4.30;1.70;;;;;;;10.49;95.03;100322.50;5052537;28;20033;-87
2023/03/23 08:58:37;;;;;;;4.63;1.73;;;;;;;10.46;94.79;100318.97;5053110;28;20108;-88
2023/03/23 09:01:04;;;;;;;5.18;1.88;;;;;;;10.47;95.62;100321.59;5053838;28;20025;-86
2023/03/23 09:03:30;;;;;;;3.63;1.70;;;;;;;10.49;96.13;100317.22;5052034;28;20033;-87
2023/03/23 09:06:01;;;;;;;4.32;1.70;;;;;;;10.50;95.89;100331.31;5018046;28;20523;-86
2023/03/23 09:08:28;;;;;;;4.22;1.75;;;;;;;10.40;96.16;100303.09;5052390;28;20053;-86
2023/03/23 09:11:08;;;;;;;5.45;1.90;;;;;;;10.49;95.55;100324.25;5034797;28;20135;-86
2023/03/23 09:13:36;;;;;;;2.78;1.70;;;;;;;10.37;95.86;100281.97;5052565;28;20080;-85
2023/03/23 09:16:01;;;;;;;5.30;1.70;;;;;;;10.66;97.92;100292.56;5052330;28;20059;-85
2023/03/23 09:18:27;;;;;;;6.18;1.90;;;;;;;10.77;96.17;100288.19;5034597;28;20132;-87
2023/03/23 09:20:54;;;;;;;7.47;2.10;;;;;;;10.93;95.48;100287.31;5034456;28;20029;-86
2023/03/23 09:23:20;;;;;;;4.63;1.80;;;;;;;11.14;95.41;100320.81;5052384;28;20029;-89
2023/03/23 09:25:46;;;;;;;4.40;1.90;;;;;;;11.20;94.66;100326.09;5052359;28;20453;-86
2023/03/23 09:28:11;;;;;;;4.57;1.70;;;;;;;11.07;92.83;100302.31;5034744;28;20033;-83
2023/03/23 09:30:38;;;;;;;6.25;2.00;;;;;;;11.08;93.39;100318.16;5034538;28;20056;-85
2023/03/23 09:33:05;;;;;;;7.20;1.92;;;;;;;11.07;93.95;100315.53;5051956;28;20029;-85
2023/03/23 09:35:34;;;;;;;5.05;2.00;;;;;;;10.94;93.97;100298.78;5034040;28;20025;-84
2023/03/23 09:38:00;;;;;;;6.18;2.10;;;;;;;11.04;93.81;100321.69;5051909;28;20166;-88
2023/03/23 09:40:41;;;;;;;5.03;1.95;;;;;;;11.00;93.56;100325.19;5052199;28;20028;-90
2023/03/23 09:43:20;;;;;;;4.00;2.03;;;;;;;10.83;93.80;100287.31;5053071;28;20365;-85
2023/03/23 09:45:45;;;;;;;4.10;2.00;;;;;;;11.10;94.02;100316.41;5045007;28;20112;-88
2023/03/23 09:48:19;;;;;;;4.97;1.98;;;;;;;11.53;92.08;100337.56;5037781;28;20110;-86
2023/03/23 09:50:50;;;;;;;3.92;1.80;;;;;;;11.70;90.24;100322.53;5037548;28;20373;-88
2023/03/23 09:53:34;;;;;;;5.55;2.00;;;;;;;11.98;88.88;100320.69;5055665;28;20021;-87
2023/03/23 09:56:02;;;;;;;4.72;2.10;;;;;;;12.43;87.49;100334.63;5037546;28;20315;-84
2023/03/23 09:58:37;;;;;;;5.20;2.17;;;;;;;12.69;86.61;100323.00;5037380;28;20417;-84
2023/03/23 10:01:12;;;;;;;5.90;2.30;;;;;;;13.02;86.75;100322.78;5055450;28;20461;-84
2023/03/23 10:03:41;;;;;;;6.78;2.10;;;;;;;13.38;84.72;100335.78;5055443;28;20394;-86
2023/03/23 10:06:12;;;;;;;5.78;1.90;;;;;;;13.44;83.15;100355.16;5055419;28;20121;-85
2023/03/23 10:08:43;;;;;;;6.32;2.15;;;;;;;13.50;83.95;100339.22;5056528;28;20470;-87
2023/03/23 10:11:21;;;;;;;8.43;2.20;;;;;;;13.74;83.44;100346.03;5037248;28;20029;-85
2023/03/23 10:14:02;;;;;;;4.35;2.00;;;;;;;13.69;81.83;100336.34;5037088;28;20068;-83
2023/03/23 10:16:42;;;;;;;6.40;2.28;;;;;;;13.73;81.48;100346.06;5037015;28;20032;-82
2023/03/23 10:19:24;;;;;;;4.07;1.88;;;;;;;13.83;80.88;100346.84;5054728;28;20037;-83
2023/03/23 10:22:06;;;;;;;5.97;1.98;;;;;;;14.09;80.90;100362.47;5054672;28;20043;-82
2023/03/23 10:24:56;;;;;;;4.95;2.03;;;;;;;14.37;80.84;100365.72;5054845;28;20032;-82
2023/03/23 10:27:50;;;;;;;5.07;2.05;;;;;;;14.60;79.92;100354.78;5055095;28;20029;-83
2023/03/23 10:30:22;;;;;;;4.93;2.20;;;;;;;14.82;77.77;100355.38;5029264;28;20037;-83
2023/03/23 10:32:53;;;;;;;5.50;2.25;;;;;;;14.92;76.58;100346.38;5054407;28;20021;-82
2023/03/23 10:36:05;;;;;;;6.85;2.30;;;;;;;15.26;77.52;100360.91;5054497;28;20025;-82
2023/03/23 10:38:42;;;;;;;4.88;2.25;;;;;;;15.13;74.50;100359.34;5033068;28;20117;-83
2023/03/23 10:41:13;;;;;;;9.30;2.35;;;;;;;15.09;75.40;100338.13;5054325;28;20116;-83
2023/03/23 10:43:41;;;;;;;4.77;2.30;;;;;;;15.19;74.81;100366.34;5036384;28;20131;-83
2023/03/23 10:46:18;;;;;;;7.80;2.35;;;;;;;14.98;74.28;100370.22;5054471;28;20425;-82
2023/03/23 10:48:44;;;;;;;5.18;2.33;;;;;;;14.86;73.87;100355.34;5036390;28;20043;-82
2023/03/23 10:51:12;;;;;;;6.15;2.22;;;;;;;14.95;74.04;100355.19;5054243;28;20029;-82
2023/03/23 10:53:49;;;;;;;8.45;2.80;;;;;;;15.02;75.13;100351.50;5053749;28;20067;-82
2023/03/23 10:56:25;;;;;;;5.55;2.30;;;;;;;15.05;74.75;100339.97;5054457;28;20025;-82
2023/03/23 10:58:51;;;;;;;6.97;2.42;;;;;;;15.02;73.66;100351.50;5036520;28;20117;-82
2023/03/23 11:01:19;;;;;;;6.35;2.30;;;;;;;15.14;73.25;100339.81;5054192;28;20040;-82
2023/03/23 11:03:49;;;;;;;7.25;2.53;;;;;;;15.23;72.87;100334.31;5053622;28;20033;-82
2023/03/23 11:06:28;;;;;;;8.02;2.45;;;;;;;15.38;73.02;100341.19;5054086;28;20032;-82
2023/03/23 11:09:12;;;;;;;9.98;2.53;;;;;;;15.65;73.48;100357.63;5053856;28;20029;-83
2023/03/23 11:11:42;;;;;;;7.63;2.47;;;;;;;15.73;71.90;100353.91;5054021;28;20025;-82
2023/03/23 11:14:29;;;;;;;6.20;2.30;;;;;;;15.80;71.87;100349.34;5053908;28;20064;-83
2023/03/23 11:17:01;;;;;;;8.05;2.30;;;;;;;15.83;71.01;100345.75;5053718;28;20112;-82
2023/03/23 11:19:33;;;;;;;5.30;2.30;;;;;;;15.86;71.72;100341.25;5053496;28;20138;-83
2023/03/23 11:22:04;;;;;;;5.28;2.47;;;;;;;15.92;72.15;100353.56;5053870;28;20029;-83
2023/03/23 11:24:36;;;;;;;8.15;2.33;;;;;;;15.83;69.67;100364.41;5035679;28;20029;-82
2023/03/23 11:27:06;;;;;;;9.05;2.83;;;;;;;15.76;70.21;100356.53;5053645;28;20033;-83
2023/03/23 11:29:33;;;;;;;4.47;2.00;;;;;;;15.72;69.71;100362.81;5053591;28;20071;-82
2023/03/23 11:31:58;;;;;;;7.68;2.45;;;;;;;15.71;69.19;100355.72;5053422;28;20028;-82